BAW257 LIRF-EGLL
Flight info
| Callsign | BAW257 |
|---|---|
| Flight time | 2h 17m |
| Altitude | 38000 |
| Route | NEMBO GOVGO SPEZI OTMUV AOSTA ORSUD MOLUS GILIR PENDU IXILU EPL ROUSY RITAX M624 BUB L608 LOGAN |
| Aircraft | A20N/M-SDE2E3FGHIJ1RWXY/LB1 |
Departure
| Time | 2026-05-07 18:37 |
|---|---|
| Airport | Rome–Fiumicino Leonardo da Vinci International Airport (LIRF) |
Arrival
| Time | 2026-05-07 20:55 |
|---|---|
| Airport | London Heathrow Airport (EGLL) |
| Time | Latitude | Longitude | Altitude | Speed | Heading |
|---|---|---|---|---|---|
| 2026-05-07 17:49 | 41.79742 | 12.25930 | 16 ft | 0 kts | 205° |
| 2026-05-07 18:26 | 41.79745 | 12.25932 | 16 ft | 3 kts | 204° |
| 2026-05-07 18:26 | 41.79770 | 12.25945 | 17 ft | 4 kts | 193° |
| 2026-05-07 18:26 | 41.79796 | 12.25948 | 16 ft | 4 kts | 162° |
| 2026-05-07 18:27 | 41.79811 | 12.25934 | 20 ft | 1 kts | 115° |
| 2026-05-07 18:27 | 41.79813 | 12.25930 | 18 ft | 0 kts | 115° |
| 2026-05-07 18:30 | 41.79806 | 12.25948 | 17 ft | 5 kts | 115° |
| 2026-05-07 18:30 | 41.79786 | 12.26008 | 16 ft | 9 kts | 111° |
| 2026-05-07 18:30 | 41.79811 | 12.26070 | 18 ft | 0 kts | 35° |
| 2026-05-07 18:30 | 41.79813 | 12.26073 | 17 ft | 2 kts | 43° |
| 2026-05-07 18:31 | 41.79828 | 12.26130 | 17 ft | 10 kts | 75° |
| 2026-05-07 18:31 | 41.79879 | 12.26199 | 18 ft | 12 kts | 25° |
| 2026-05-07 18:31 | 41.79959 | 12.26251 | 18 ft | 14 kts | 25° |
| 2026-05-07 18:31 | 41.80033 | 12.26296 | 18 ft | 11 kts | 24° |
| 2026-05-07 18:32 | 41.80080 | 12.26325 | 17 ft | 0 kts | 24° |
| 2026-05-07 18:32 | 41.80087 | 12.26329 | 17 ft | 3 kts | 24° |
| 2026-05-07 18:32 | 41.80116 | 12.26347 | 17 ft | 6 kts | 24° |
| 2026-05-07 18:32 | 41.80167 | 12.26378 | 17 ft | 10 kts | 24° |
| 2026-05-07 18:33 | 41.80239 | 12.26416 | 16 ft | 13 kts | 9° |
| 2026-05-07 18:33 | 41.80331 | 12.26384 | 14 ft | 13 kts | 339° |
| 2026-05-07 18:33 | 41.80417 | 12.26388 | 16 ft | 13 kts | 38° |
| 2026-05-07 18:33 | 41.80457 | 12.26503 | 15 ft | 15 kts | 71° |
| 2026-05-07 18:34 | 41.80494 | 12.26643 | 14 ft | 17 kts | 69° |
| 2026-05-07 18:34 | 41.80522 | 12.26743 | 15 ft | 8 kts | 69° |
| 2026-05-07 18:34 | 41.80544 | 12.26825 | 15 ft | 11 kts | 70° |
| 2026-05-07 18:34 | 41.80572 | 12.26928 | 15 ft | 13 kts | 70° |
| 2026-05-07 18:35 | 41.80629 | 12.27036 | 13 ft | 16 kts | 28° |
| 2026-05-07 18:35 | 41.80707 | 12.27053 | 11 ft | 18 kts | 4° |
| 2026-05-07 18:35 | 41.80838 | 12.27026 | 11 ft | 19 kts | 340° |
| 2026-05-07 18:35 | 41.80854 | 12.27018 | 10 ft | 0 kts | 340° |
| 2026-05-07 18:36 | 41.80862 | 12.27014 | 10 ft | 3 kts | 340° |
| 2026-05-07 18:36 | 41.80895 | 12.26998 | 10 ft | 6 kts | 340° |
| 2026-05-07 18:36 | 41.80940 | 12.26970 | 12 ft | 8 kts | 322° |
| 2026-05-07 18:36 | 41.80949 | 12.26903 | 11 ft | 8 kts | 255° |
| 2026-05-07 18:37 | 41.80897 | 12.26697 | 11 ft | 59 kts | 250° |
| 2026-05-07 18:37 | 41.80662 | 12.25847 | 16 ft | 133 kts | 249° |
| 2026-05-07 18:37 | 41.80279 | 12.24445 | 183 ft | 177 kts | 252° |
| 2026-05-07 18:37 | 41.79840 | 12.22809 | 670 ft | 198 kts | 252° |
| 2026-05-07 18:38 | 41.79356 | 12.20954 | 1242 ft | 217 kts | 254° |
| 2026-05-07 18:38 | 41.78963 | 12.19026 | 2259 ft | 220 kts | 261° |
| 2026-05-07 18:38 | 41.78763 | 12.16879 | 2916 ft | 243 kts | 268° |
| 2026-05-07 18:38 | 41.78763 | 12.14513 | 3447 ft | 265 kts | 273° |
| 2026-05-07 18:39 | 41.78882 | 12.11997 | 4196 ft | 273 kts | 275° |
| 2026-05-07 18:39 | 41.79025 | 12.09457 | 5173 ft | 275 kts | 271° |
| 2026-05-07 18:39 | 41.79035 | 12.06883 | 6116 ft | 277 kts | 269° |
| 2026-05-07 18:39 | 41.79039 | 12.04295 | 7016 ft | 280 kts | 269° |
| 2026-05-07 18:40 | 41.79038 | 12.01684 | 7945 ft | 281 kts | 269° |
| 2026-05-07 18:40 | 41.79034 | 11.99061 | 8878 ft | 282 kts | 268° |
| 2026-05-07 18:40 | 41.79028 | 11.96418 | 9886 ft | 285 kts | 268° |
| 2026-05-07 18:40 | 41.79020 | 11.93733 | 10521 ft | 297 kts | 268° |
| 2026-05-07 18:41 | 41.79009 | 11.90895 | 10805 ft | 319 kts | 268° |
| 2026-05-07 18:41 | 41.78998 | 11.87794 | 11197 ft | 336 kts | 269° |
| 2026-05-07 18:41 | 41.78988 | 11.84648 | 11962 ft | 339 kts | 269° |
| 2026-05-07 18:41 | 41.78978 | 11.81518 | 12747 ft | 343 kts | 268° |
| 2026-05-07 18:42 | 41.78966 | 11.78307 | 13523 ft | 346 kts | 268° |
| 2026-05-07 18:42 | 41.78951 | 11.75025 | 14233 ft | 350 kts | 268° |
| 2026-05-07 18:42 | 41.78936 | 11.71758 | 14970 ft | 351 kts | 268° |
| 2026-05-07 18:42 | 41.78920 | 11.68517 | 15708 ft | 353 kts | 268° |
| 2026-05-07 18:43 | 41.78902 | 11.65186 | 16428 ft | 355 kts | 268° |
| 2026-05-07 18:43 | 41.78883 | 11.61855 | 17149 ft | 357 kts | 268° |
| 2026-05-07 18:43 | 41.78920 | 11.58522 | 17842 ft | 361 kts | 274° |
| 2026-05-07 18:43 | 41.79503 | 11.55282 | 18485 ft | 367 kts | 289° |
| 2026-05-07 18:44 | 41.80768 | 11.52286 | 19084 ft | 374 kts | 305° |
| 2026-05-07 18:44 | 41.82481 | 11.49644 | 19688 ft | 377 kts | 308° |
| 2026-05-07 18:44 | 41.84223 | 11.47010 | 20305 ft | 378 kts | 308° |
| 2026-05-07 18:44 | 41.85967 | 11.44361 | 20919 ft | 380 kts | 308° |
| 2026-05-07 18:45 | 41.87714 | 11.41698 | 21525 ft | 382 kts | 308° |
| 2026-05-07 18:45 | 41.89471 | 11.39012 | 22117 ft | 384 kts | 308° |
| 2026-05-07 18:45 | 41.91235 | 11.36311 | 22710 ft | 385 kts | 308° |
| 2026-05-07 18:45 | 41.93005 | 11.33597 | 23300 ft | 387 kts | 308° |
| 2026-05-07 18:46 | 41.94782 | 11.30870 | 23820 ft | 389 kts | 308° |
| 2026-05-07 18:46 | 41.96569 | 11.28126 | 24274 ft | 392 kts | 308° |
| 2026-05-07 18:46 | 41.98371 | 11.25355 | 24723 ft | 394 kts | 308° |
| 2026-05-07 18:46 | 42.00181 | 11.22571 | 25156 ft | 397 kts | 307° |
| 2026-05-07 18:47 | 42.01998 | 11.19773 | 25581 ft | 399 kts | 307° |
| 2026-05-07 18:47 | 42.03832 | 11.16946 | 26004 ft | 402 kts | 307° |
| 2026-05-07 18:47 | 42.05675 | 11.14101 | 26415 ft | 404 kts | 307° |
| 2026-05-07 18:47 | 42.07531 | 11.11235 | 26819 ft | 407 kts | 307° |
| 2026-05-07 18:48 | 42.09391 | 11.08361 | 27219 ft | 409 kts | 307° |
| 2026-05-07 18:48 | 42.11266 | 11.05458 | 27606 ft | 411 kts | 306° |
| 2026-05-07 18:48 | 42.13146 | 11.02547 | 27999 ft | 413 kts | 306° |
| 2026-05-07 18:48 | 42.15037 | 10.99616 | 28369 ft | 415 kts | 306° |
| 2026-05-07 18:49 | 42.16938 | 10.96666 | 28742 ft | 417 kts | 306° |
| 2026-05-07 18:49 | 42.18839 | 10.93713 | 29086 ft | 419 kts | 306° |
| 2026-05-07 18:49 | 42.20755 | 10.90735 | 29451 ft | 420 kts | 306° |
| 2026-05-07 18:49 | 42.22674 | 10.87748 | 29805 ft | 422 kts | 306° |
| 2026-05-07 18:50 | 42.24599 | 10.84749 | 30142 ft | 423 kts | 306° |
| 2026-05-07 18:50 | 42.26556 | 10.81757 | 30451 ft | 427 kts | 309° |
| 2026-05-07 18:50 | 42.28797 | 10.79081 | 30725 ft | 436 kts | 317° |
| 2026-05-07 18:50 | 42.31380 | 10.76863 | 31022 ft | 445 kts | 326° |
| 2026-05-07 18:51 | 42.34255 | 10.75177 | 31349 ft | 453 kts | 333° |
| 2026-05-07 18:51 | 42.37222 | 10.73737 | 31696 ft | 453 kts | 333° |
| 2026-05-07 18:51 | 42.40180 | 10.72281 | 32059 ft | 452 kts | 333° |
| 2026-05-07 18:51 | 42.43132 | 10.70819 | 32414 ft | 452 kts | 332° |
| 2026-05-07 18:52 | 42.46084 | 10.69356 | 32761 ft | 451 kts | 332° |
| 2026-05-07 18:52 | 42.49035 | 10.67891 | 33096 ft | 451 kts | 332° |
| 2026-05-07 18:52 | 42.51965 | 10.66437 | 33417 ft | 451 kts | 332° |
| 2026-05-07 18:52 | 42.54909 | 10.64975 | 33735 ft | 450 kts | 332° |
| 2026-05-07 18:53 | 42.57843 | 10.63517 | 34040 ft | 449 kts | 331° |
| 2026-05-07 18:53 | 42.60782 | 10.62055 | 34333 ft | 448 kts | 331° |
| 2026-05-07 18:53 | 42.63703 | 10.60600 | 34602 ft | 448 kts | 331° |
| 2026-05-07 18:53 | 42.66591 | 10.59160 | 34862 ft | 447 kts | 331° |
| 2026-05-07 18:54 | 42.69540 | 10.57687 | 35111 ft | 447 kts | 331° |
| 2026-05-07 18:54 | 42.72462 | 10.56227 | 35356 ft | 446 kts | 331° |
| 2026-05-07 18:54 | 42.75363 | 10.54776 | 35589 ft | 445 kts | 331° |
| 2026-05-07 18:54 | 42.78278 | 10.53317 | 35819 ft | 445 kts | 331° |
| 2026-05-07 18:55 | 42.81177 | 10.51864 | 36026 ft | 445 kts | 331° |
| 2026-05-07 18:55 | 42.84083 | 10.50405 | 36229 ft | 445 kts | 331° |
| 2026-05-07 18:55 | 42.86992 | 10.48943 | 36416 ft | 445 kts | 331° |
| 2026-05-07 18:55 | 42.89899 | 10.47481 | 36625 ft | 445 kts | 331° |
| 2026-05-07 18:56 | 42.92801 | 10.46019 | 36802 ft | 445 kts | 331° |
| 2026-05-07 18:56 | 42.95661 | 10.44578 | 36981 ft | 444 kts | 331° |
| 2026-05-07 18:56 | 42.98553 | 10.43119 | 37148 ft | 445 kts | 331° |
| 2026-05-07 18:56 | 43.01460 | 10.41651 | 37327 ft | 444 kts | 331° |
| 2026-05-07 18:57 | 43.04362 | 10.40184 | 37492 ft | 444 kts | 331° |
| 2026-05-07 18:57 | 43.07260 | 10.38719 | 37657 ft | 444 kts | 331° |
| 2026-05-07 18:57 | 43.10159 | 10.37251 | 37812 ft | 444 kts | 331° |
| 2026-05-07 18:57 | 43.13042 | 10.35741 | 37963 ft | 441 kts | 328° |
| 2026-05-07 18:58 | 43.15785 | 10.33938 | 37990 ft | 435 kts | 323° |
| 2026-05-07 18:58 | 43.20768 | 10.29460 | 37991 ft | 424 kts | 313° |
| 2026-05-07 18:59 | 43.25178 | 10.24184 | 37987 ft | 420 kts | 310° |
| 2026-05-07 18:59 | 43.29559 | 10.18868 | 37988 ft | 420 kts | 310° |
| 2026-05-07 19:00 | 43.33928 | 10.13537 | 37987 ft | 420 kts | 310° |
| 2026-05-07 19:00 | 43.38302 | 10.08176 | 37990 ft | 421 kts | 310° |
| 2026-05-07 19:01 | 43.42664 | 10.02815 | 37991 ft | 421 kts | 310° |
| 2026-05-07 19:01 | 43.47025 | 9.97446 | 37994 ft | 421 kts | 310° |
| 2026-05-07 19:02 | 43.51384 | 9.92069 | 37991 ft | 421 kts | 310° |
| 2026-05-07 19:02 | 43.55752 | 9.86670 | 37991 ft | 421 kts | 310° |
| 2026-05-07 19:03 | 43.60112 | 9.81269 | 37992 ft | 422 kts | 310° |
| 2026-05-07 19:03 | 43.64475 | 9.75855 | 37992 ft | 422 kts | 310° |
| 2026-05-07 19:04 | 43.68832 | 9.70436 | 37993 ft | 422 kts | 310° |
| 2026-05-07 19:04 | 43.73202 | 9.64990 | 37992 ft | 422 kts | 310° |
| 2026-05-07 19:05 | 43.77559 | 9.59549 | 37994 ft | 422 kts | 310° |
| 2026-05-07 19:05 | 43.81887 | 9.54048 | 37992 ft | 422 kts | 309° |
| 2026-05-07 19:06 | 43.86185 | 9.48519 | 38002 ft | 422 kts | 309° |
| 2026-05-07 19:06 | 43.92625 | 9.40239 | 37991 ft | 423 kts | 309° |
| 2026-05-07 19:07 | 43.96963 | 9.34654 | 37989 ft | 423 kts | 309° |
| 2026-05-07 19:07 | 44.01269 | 9.29098 | 37998 ft | 423 kts | 309° |
| 2026-05-07 19:08 | 44.05538 | 9.23579 | 37996 ft | 423 kts | 309° |
| 2026-05-07 19:08 | 44.09844 | 9.18000 | 37991 ft | 423 kts | 309° |
| 2026-05-07 19:09 | 44.14146 | 9.12413 | 37997 ft | 423 kts | 309° |
| 2026-05-07 19:09 | 44.18438 | 9.06833 | 37996 ft | 423 kts | 310° |
| 2026-05-07 19:10 | 44.23121 | 9.01728 | 37997 ft | 429 kts | 316° |
| 2026-05-07 19:10 | 44.27909 | 8.96786 | 37991 ft | 429 kts | 316° |
| 2026-05-07 19:11 | 44.32693 | 8.91830 | 37992 ft | 429 kts | 316° |
| 2026-05-07 19:11 | 44.37487 | 8.86859 | 37991 ft | 429 kts | 316° |
| 2026-05-07 19:12 | 44.42278 | 8.81883 | 37990 ft | 429 kts | 316° |
| 2026-05-07 19:12 | 44.47068 | 8.76896 | 37993 ft | 430 kts | 316° |
| 2026-05-07 19:13 | 44.51860 | 8.71898 | 37995 ft | 430 kts | 316° |
| 2026-05-07 19:13 | 44.56655 | 8.66885 | 37996 ft | 430 kts | 316° |
| 2026-05-07 19:14 | 44.61455 | 8.61858 | 37997 ft | 430 kts | 316° |
| 2026-05-07 19:14 | 44.66257 | 8.56819 | 37997 ft | 430 kts | 316° |
| 2026-05-07 19:15 | 44.71046 | 8.51781 | 37988 ft | 430 kts | 316° |
| 2026-05-07 19:15 | 44.75841 | 8.46726 | 37988 ft | 430 kts | 316° |
| 2026-05-07 19:16 | 44.80629 | 8.41667 | 37996 ft | 431 kts | 316° |
| 2026-05-07 19:16 | 44.85421 | 8.36593 | 37975 ft | 431 kts | 317° |
| 2026-05-07 19:17 | 44.90206 | 8.31516 | 37969 ft | 431 kts | 317° |
| 2026-05-07 19:17 | 44.95003 | 8.26417 | 37975 ft | 431 kts | 317° |
| 2026-05-07 19:18 | 44.98979 | 8.22182 | 37974 ft | 431 kts | 317° |
| 2026-05-07 19:18 | 45.04571 | 8.16212 | 37977 ft | 432 kts | 317° |
| 2026-05-07 19:19 | 45.09365 | 8.11082 | 37977 ft | 432 kts | 317° |
| 2026-05-07 19:19 | 45.14159 | 8.05941 | 37971 ft | 432 kts | 317° |
| 2026-05-07 19:20 | 45.18136 | 8.01667 | 37970 ft | 432 kts | 317° |
| 2026-05-07 19:20 | 45.22934 | 7.96502 | 37967 ft | 433 kts | 317° |
| 2026-05-07 19:21 | 45.27726 | 7.91333 | 37969 ft | 433 kts | 317° |
| 2026-05-07 19:21 | 45.32511 | 7.86158 | 37968 ft | 433 kts | 317° |
| 2026-05-07 19:22 | 45.37313 | 7.80954 | 37972 ft | 434 kts | 317° |
| 2026-05-07 19:22 | 45.42109 | 7.75746 | 37975 ft | 434 kts | 317° |
| 2026-05-07 19:23 | 45.46899 | 7.70532 | 37981 ft | 433 kts | 317° |
| 2026-05-07 19:23 | 45.51666 | 7.65334 | 37975 ft | 431 kts | 317° |
| 2026-05-07 19:24 | 45.56439 | 7.60108 | 37987 ft | 434 kts | 317° |
| 2026-05-07 19:24 | 45.61243 | 7.54848 | 37990 ft | 436 kts | 317° |
| 2026-05-07 19:25 | 45.66045 | 7.49579 | 37974 ft | 435 kts | 317° |
| 2026-05-07 19:25 | 45.70852 | 7.44290 | 37967 ft | 435 kts | 317° |
| 2026-05-07 19:26 | 45.75635 | 7.39015 | 37967 ft | 434 kts | 317° |
| 2026-05-07 19:26 | 45.80393 | 7.33764 | 37967 ft | 435 kts | 318° |
| 2026-05-07 19:27 | 45.85360 | 7.28685 | 37976 ft | 437 kts | 320° |
| 2026-05-07 19:27 | 45.90331 | 7.23703 | 37995 ft | 436 kts | 320° |
| 2026-05-07 19:28 | 45.95260 | 7.18703 | 37983 ft | 437 kts | 320° |
| 2026-05-07 19:28 | 46.00216 | 7.13638 | 38006 ft | 438 kts | 320° |
| 2026-05-07 19:29 | 46.05203 | 7.08522 | 38005 ft | 437 kts | 320° |
| 2026-05-07 19:29 | 46.10116 | 7.03473 | 38003 ft | 437 kts | 320° |
| 2026-05-07 19:30 | 46.15088 | 6.98354 | 38009 ft | 438 kts | 320° |
| 2026-05-07 19:30 | 46.20035 | 6.93248 | 38011 ft | 439 kts | 320° |
| 2026-05-07 19:31 | 46.24990 | 6.88128 | 38014 ft | 436 kts | 320° |
| 2026-05-07 19:31 | 46.29922 | 6.83016 | 38015 ft | 437 kts | 320° |
| 2026-05-07 19:32 | 46.34861 | 6.77887 | 38010 ft | 436 kts | 320° |
| 2026-05-07 19:32 | 46.39792 | 6.72753 | 38019 ft | 437 kts | 320° |
| 2026-05-07 19:33 | 46.44836 | 6.67789 | 38013 ft | 441 kts | 326° |
| 2026-05-07 19:33 | 46.50342 | 6.63802 | 38022 ft | 444 kts | 329° |
| 2026-05-07 19:34 | 46.55902 | 6.59868 | 38012 ft | 444 kts | 329° |
| 2026-05-07 19:34 | 46.61437 | 6.55949 | 38026 ft | 442 kts | 329° |
| 2026-05-07 19:35 | 46.66978 | 6.52025 | 38031 ft | 443 kts | 329° |
| 2026-05-07 19:35 | 46.72513 | 6.48101 | 38030 ft | 442 kts | 329° |
| 2026-05-07 19:36 | 46.78041 | 6.44172 | 38039 ft | 443 kts | 329° |
| 2026-05-07 19:36 | 46.83583 | 6.40226 | 38044 ft | 442 kts | 329° |
| 2026-05-07 19:37 | 46.89102 | 6.36285 | 38046 ft | 442 kts | 329° |
| 2026-05-07 19:37 | 46.94583 | 6.32362 | 38050 ft | 441 kts | 329° |
| 2026-05-07 19:38 | 47.00088 | 6.28414 | 38033 ft | 441 kts | 329° |
| 2026-05-07 19:38 | 47.05603 | 6.24449 | 38037 ft | 440 kts | 329° |
| 2026-05-07 19:39 | 47.11152 | 6.20645 | 38037 ft | 444 kts | 338° |
| 2026-05-07 19:39 | 47.14179 | 6.19608 | 38029 ft | 451 kts | 350° |
| 2026-05-07 19:39 | 47.17319 | 6.19202 | 38028 ft | 452 kts | 351° |
| 2026-05-07 19:40 | 47.23590 | 6.18466 | 38026 ft | 453 kts | 351° |
| 2026-05-07 19:40 | 47.29870 | 6.17751 | 38034 ft | 453 kts | 352° |
| 2026-05-07 19:41 | 47.36166 | 6.17035 | 38035 ft | 454 kts | 352° |
| 2026-05-07 19:41 | 47.42458 | 6.16318 | 38041 ft | 454 kts | 352° |
| 2026-05-07 19:42 | 47.48771 | 6.15597 | 38044 ft | 455 kts | 352° |
| 2026-05-07 19:42 | 47.55074 | 6.14875 | 38048 ft | 455 kts | 352° |
| 2026-05-07 19:43 | 47.61408 | 6.14147 | 38058 ft | 456 kts | 352° |
| 2026-05-07 19:43 | 47.67740 | 6.13418 | 38056 ft | 456 kts | 352° |
| 2026-05-07 19:44 | 47.74075 | 6.12688 | 38066 ft | 457 kts | 352° |
| 2026-05-07 19:44 | 47.80387 | 6.11958 | 38053 ft | 454 kts | 352° |
| 2026-05-07 19:45 | 47.86703 | 6.11225 | 38048 ft | 455 kts | 352° |
| 2026-05-07 19:45 | 47.93016 | 6.10491 | 38058 ft | 455 kts | 352° |
| 2026-05-07 19:46 | 47.99310 | 6.09757 | 38054 ft | 455 kts | 352° |
| 2026-05-07 19:46 | 48.05633 | 6.09018 | 38055 ft | 455 kts | 352° |
| 2026-05-07 19:47 | 48.11928 | 6.08280 | 38051 ft | 455 kts | 352° |
| 2026-05-07 19:47 | 48.18241 | 6.07539 | 38048 ft | 455 kts | 352° |
| 2026-05-07 19:48 | 48.24557 | 6.06796 | 38047 ft | 454 kts | 352° |
| 2026-05-07 19:48 | 48.30860 | 6.06068 | 38044 ft | 455 kts | 354° |
| 2026-05-07 19:49 | 48.37176 | 6.06222 | 38048 ft | 457 kts | 359° |
| 2026-05-07 19:49 | 48.43553 | 6.06509 | 38042 ft | 457 kts | 358° |
| 2026-05-07 19:50 | 48.49918 | 6.06794 | 38042 ft | 457 kts | 358° |
| 2026-05-07 19:50 | 48.56284 | 6.07093 | 38052 ft | 457 kts | 359° |
| 2026-05-07 19:51 | 48.62616 | 6.07393 | 38049 ft | 457 kts | 359° |
| 2026-05-07 19:51 | 48.68981 | 6.07696 | 38051 ft | 457 kts | 359° |
| 2026-05-07 19:52 | 48.75340 | 6.07999 | 38053 ft | 457 kts | 359° |
| 2026-05-07 19:52 | 48.81700 | 6.08303 | 38056 ft | 457 kts | 359° |
| 2026-05-07 19:53 | 48.88061 | 6.08607 | 38082 ft | 457 kts | 359° |
| 2026-05-07 19:53 | 48.94425 | 6.08912 | 38079 ft | 457 kts | 359° |
| 2026-05-07 19:54 | 49.00781 | 6.09218 | 38073 ft | 457 kts | 359° |
| 2026-05-07 19:54 | 49.07130 | 6.09525 | 38070 ft | 457 kts | 359° |
| 2026-05-07 19:55 | 49.13475 | 6.09832 | 38066 ft | 457 kts | 359° |
| 2026-05-07 19:55 | 49.19837 | 6.10140 | 38059 ft | 457 kts | 359° |
| 2026-05-07 19:56 | 49.26193 | 6.10449 | 38059 ft | 457 kts | 359° |
| 2026-05-07 19:56 | 49.32548 | 6.10759 | 38049 ft | 457 kts | 359° |
| 2026-05-07 19:57 | 49.38896 | 6.11069 | 38046 ft | 457 kts | 359° |
| 2026-05-07 19:57 | 49.45248 | 6.11017 | 38043 ft | 454 kts | 352° |
| 2026-05-07 19:58 | 49.51436 | 6.09388 | 38047 ft | 450 kts | 342° |
| 2026-05-07 19:58 | 49.57406 | 6.06487 | 38044 ft | 449 kts | 339° |
| 2026-05-07 19:59 | 49.63348 | 6.03513 | 38071 ft | 450 kts | 339° |
| 2026-05-07 19:59 | 49.69303 | 6.00498 | 38067 ft | 450 kts | 339° |
| 2026-05-07 20:00 | 49.75252 | 5.97460 | 38073 ft | 451 kts | 339° |
| 2026-05-07 20:00 | 49.78145 | 5.95656 | 38073 ft | 446 kts | 328° |
| 2026-05-07 20:00 | 49.80696 | 5.92992 | 38062 ft | 441 kts | 315° |
| 2026-05-07 20:01 | 49.84810 | 5.86025 | 38056 ft | 438 kts | 307° |
| 2026-05-07 20:01 | 49.88790 | 5.78881 | 38056 ft | 439 kts | 309° |
| 2026-05-07 20:02 | 49.92877 | 5.71919 | 38073 ft | 439 kts | 310° |
| 2026-05-07 20:02 | 49.97031 | 5.64934 | 38074 ft | 440 kts | 310° |
| 2026-05-07 20:03 | 50.01181 | 5.57941 | 38079 ft | 440 kts | 310° |
| 2026-05-07 20:03 | 50.04650 | 5.52077 | 38087 ft | 441 kts | 310° |
| 2026-05-07 20:04 | 50.09473 | 5.43899 | 38067 ft | 440 kts | 310° |
| 2026-05-07 20:04 | 50.12928 | 5.38024 | 38068 ft | 439 kts | 310° |
| 2026-05-07 20:05 | 50.17049 | 5.30998 | 38071 ft | 439 kts | 310° |
| 2026-05-07 20:05 | 50.21177 | 5.23943 | 38076 ft | 439 kts | 309° |
| 2026-05-07 20:06 | 50.25294 | 5.16886 | 38073 ft | 439 kts | 309° |
| 2026-05-07 20:06 | 50.29405 | 5.09818 | 38078 ft | 440 kts | 309° |
| 2026-05-07 20:07 | 50.33541 | 5.02691 | 38080 ft | 440 kts | 309° |
| 2026-05-07 20:07 | 50.37651 | 4.95588 | 38079 ft | 440 kts | 309° |
| 2026-05-07 20:08 | 50.41755 | 4.88474 | 38083 ft | 440 kts | 309° |
| 2026-05-07 20:08 | 50.45864 | 4.81332 | 38080 ft | 440 kts | 309° |
| 2026-05-07 20:09 | 50.49957 | 4.74200 | 38081 ft | 440 kts | 309° |
| 2026-05-07 20:10 | 50.56098 | 4.63461 | 38080 ft | 440 kts | 309° |
| 2026-05-07 20:10 | 50.60186 | 4.56285 | 38079 ft | 440 kts | 309° |
| 2026-05-07 20:11 | 50.64267 | 4.49101 | 38080 ft | 440 kts | 309° |
| 2026-05-07 20:11 | 50.68341 | 4.41910 | 38077 ft | 440 kts | 309° |
| 2026-05-07 20:12 | 50.72413 | 4.34703 | 38077 ft | 440 kts | 309° |
| 2026-05-07 20:12 | 50.76482 | 4.27480 | 38080 ft | 440 kts | 309° |
| 2026-05-07 20:13 | 50.80544 | 4.20248 | 38075 ft | 440 kts | 309° |
| 2026-05-07 20:13 | 50.84596 | 4.13015 | 38073 ft | 440 kts | 309° |
| 2026-05-07 20:14 | 50.88645 | 4.05764 | 38072 ft | 440 kts | 309° |
| 2026-05-07 20:14 | 50.92702 | 3.98481 | 38070 ft | 440 kts | 309° |
| 2026-05-07 20:15 | 50.96739 | 3.91212 | 38069 ft | 440 kts | 309° |
| 2026-05-07 20:15 | 51.00772 | 3.83929 | 38068 ft | 440 kts | 309° |
| 2026-05-07 20:16 | 51.04804 | 3.76627 | 38073 ft | 440 kts | 309° |
| 2026-05-07 20:16 | 51.08836 | 3.69305 | 38071 ft | 440 kts | 309° |
| 2026-05-07 20:17 | 51.12835 | 3.62021 | 38072 ft | 440 kts | 309° |
| 2026-05-07 20:17 | 51.16884 | 3.54627 | 38069 ft | 440 kts | 309° |
| 2026-05-07 20:18 | 51.20897 | 3.47274 | 38072 ft | 440 kts | 308° |
| 2026-05-07 20:18 | 51.24916 | 3.39891 | 38074 ft | 440 kts | 308° |
| 2026-05-07 20:19 | 51.28926 | 3.32501 | 38076 ft | 441 kts | 308° |
| 2026-05-07 20:19 | 51.32937 | 3.25089 | 38079 ft | 441 kts | 308° |
| 2026-05-07 20:20 | 51.36914 | 3.17706 | 38080 ft | 441 kts | 307° |
| 2026-05-07 20:20 | 51.40375 | 3.09673 | 38082 ft | 438 kts | 297° |
| 2026-05-07 20:21 | 51.42978 | 3.00904 | 37963 ft | 433 kts | 288° |
| 2026-05-07 20:21 | 51.44022 | 2.96405 | 37544 ft | 430 kts | 289° |
| 2026-05-07 20:21 | 51.45090 | 2.91883 | 36971 ft | 428 kts | 289° |
| 2026-05-07 20:21 | 51.46131 | 2.87483 | 36364 ft | 427 kts | 289° |
| 2026-05-07 20:22 | 51.47178 | 2.83032 | 35751 ft | 425 kts | 289° |
| 2026-05-07 20:22 | 51.48214 | 2.78597 | 35152 ft | 424 kts | 289° |
| 2026-05-07 20:22 | 51.49241 | 2.74178 | 34561 ft | 422 kts | 289° |
| 2026-05-07 20:22 | 51.50260 | 2.69781 | 33958 ft | 420 kts | 289° |
| 2026-05-07 20:23 | 51.51278 | 2.65381 | 33216 ft | 420 kts | 288° |
| 2026-05-07 20:23 | 51.52293 | 2.60979 | 32394 ft | 421 kts | 288° |
| 2026-05-07 20:23 | 51.53306 | 2.56575 | 31579 ft | 423 kts | 288° |
| 2026-05-07 20:23 | 51.54193 | 2.52049 | 30756 ft | 423 kts | 281° |
| 2026-05-07 20:24 | 51.54726 | 2.47414 | 30029 ft | 422 kts | 278° |
| 2026-05-07 20:24 | 51.55197 | 2.42789 | 29353 ft | 418 kts | 278° |
| 2026-05-07 20:24 | 51.55664 | 2.38196 | 28683 ft | 414 kts | 278° |
| 2026-05-07 20:24 | 51.56137 | 2.33665 | 28020 ft | 410 kts | 278° |
| 2026-05-07 20:25 | 51.56616 | 2.29168 | 27383 ft | 407 kts | 278° |
| 2026-05-07 20:25 | 51.57096 | 2.24708 | 26757 ft | 404 kts | 278° |
| 2026-05-07 20:25 | 51.57575 | 2.20271 | 26149 ft | 400 kts | 278° |
| 2026-05-07 20:25 | 51.58048 | 2.15885 | 25546 ft | 397 kts | 278° |
| 2026-05-07 20:26 | 51.58517 | 2.11515 | 25097 ft | 391 kts | 278° |
| 2026-05-07 20:26 | 51.58969 | 2.07294 | 24931 ft | 377 kts | 278° |
| 2026-05-07 20:26 | 51.59403 | 2.03217 | 24506 ft | 372 kts | 278° |
| 2026-05-07 20:26 | 51.59842 | 1.99077 | 23956 ft | 371 kts | 278° |
| 2026-05-07 20:27 | 51.60275 | 1.94973 | 23195 ft | 374 kts | 278° |
| 2026-05-07 20:27 | 51.60708 | 1.90862 | 22573 ft | 372 kts | 278° |
| 2026-05-07 20:27 | 51.61137 | 1.86775 | 21993 ft | 369 kts | 278° |
| 2026-05-07 20:27 | 51.61563 | 1.82709 | 21424 ft | 367 kts | 278° |
| 2026-05-07 20:28 | 51.61984 | 1.78673 | 20863 ft | 364 kts | 278° |
| 2026-05-07 20:28 | 51.62401 | 1.74661 | 20315 ft | 362 kts | 278° |
| 2026-05-07 20:28 | 51.62814 | 1.70666 | 19765 ft | 360 kts | 278° |
| 2026-05-07 20:28 | 51.63221 | 1.66724 | 19248 ft | 359 kts | 278° |
| 2026-05-07 20:29 | 51.63629 | 1.62763 | 18741 ft | 356 kts | 278° |
| 2026-05-07 20:29 | 51.64032 | 1.58832 | 18214 ft | 355 kts | 278° |
| 2026-05-07 20:29 | 51.64430 | 1.54932 | 17654 ft | 352 kts | 278° |
| 2026-05-07 20:29 | 51.64826 | 1.51049 | 17123 ft | 350 kts | 278° |
| 2026-05-07 20:30 | 51.65215 | 1.47210 | 16602 ft | 348 kts | 278° |
| 2026-05-07 20:30 | 51.65603 | 1.43375 | 16218 ft | 342 kts | 278° |
| 2026-05-07 20:30 | 51.65984 | 1.39591 | 16107 ft | 345 kts | 278° |
| 2026-05-07 20:30 | 51.66368 | 1.35761 | 16093 ft | 347 kts | 278° |
| 2026-05-07 20:31 | 51.66751 | 1.31933 | 16092 ft | 346 kts | 277° |
| 2026-05-07 20:31 | 51.67133 | 1.28101 | 16093 ft | 346 kts | 277° |
| 2026-05-07 20:31 | 51.67515 | 1.24265 | 16093 ft | 346 kts | 277° |
| 2026-05-07 20:31 | 51.67898 | 1.20390 | 16095 ft | 346 kts | 277° |
| 2026-05-07 20:32 | 51.68277 | 1.16559 | 16094 ft | 346 kts | 277° |
| 2026-05-07 20:32 | 51.68648 | 1.12782 | 16094 ft | 346 kts | 277° |
| 2026-05-07 20:32 | 51.69023 | 1.08957 | 15983 ft | 344 kts | 277° |
| 2026-05-07 20:32 | 51.69404 | 1.05047 | 15817 ft | 369 kts | 277° |
| 2026-05-07 20:33 | 51.69815 | 1.00790 | 15801 ft | 400 kts | 277° |
| 2026-05-07 20:33 | 51.70169 | 0.96189 | 15775 ft | 425 kts | 272° |
| 2026-05-07 20:33 | 51.70145 | 0.91431 | 15732 ft | 420 kts | 264° |
| 2026-05-07 20:33 | 51.69826 | 0.86878 | 15544 ft | 401 kts | 262° |
| 2026-05-07 20:34 | 51.69516 | 0.82514 | 15324 ft | 380 kts | 262° |
| 2026-05-07 20:34 | 51.69229 | 0.78408 | 15101 ft | 357 kts | 262° |
| 2026-05-07 20:34 | 51.69034 | 0.75601 | 14959 ft | 342 kts | 262° |
| 2026-05-07 20:34 | 51.68774 | 0.71905 | 14769 ft | 323 kts | 262° |
| 2026-05-07 20:35 | 51.68527 | 0.68414 | 14599 ft | 304 kts | 262° |
| 2026-05-07 20:35 | 51.68293 | 0.65131 | 14468 ft | 288 kts | 262° |
| 2026-05-07 20:35 | 51.68066 | 0.61969 | 14164 ft | 285 kts | 261° |
| 2026-05-07 20:35 | 51.67832 | 0.58760 | 13485 ft | 293 kts | 261° |
| 2026-05-07 20:36 | 51.67593 | 0.55491 | 12975 ft | 295 kts | 262° |
| 2026-05-07 20:36 | 51.67354 | 0.52212 | 12577 ft | 293 kts | 262° |
| 2026-05-07 20:36 | 51.67118 | 0.48970 | 12169 ft | 292 kts | 262° |
| 2026-05-07 20:36 | 51.66902 | 0.46013 | 11801 ft | 290 kts | 262° |
| 2026-05-07 20:37 | 51.66665 | 0.42788 | 11394 ft | 289 kts | 262° |
| 2026-05-07 20:37 | 51.66444 | 0.39593 | 11006 ft | 287 kts | 263° |
| 2026-05-07 20:37 | 51.66326 | 0.36425 | 10829 ft | 278 kts | 266° |
| 2026-05-07 20:37 | 51.66243 | 0.33385 | 10726 ft | 266 kts | 266° |
| 2026-05-07 20:38 | 51.66166 | 0.30481 | 10599 ft | 254 kts | 266° |
| 2026-05-07 20:38 | 51.66091 | 0.27672 | 10347 ft | 249 kts | 266° |
| 2026-05-07 20:38 | 51.66015 | 0.24887 | 10017 ft | 248 kts | 266° |
| 2026-05-07 20:38 | 51.65937 | 0.22116 | 9679 ft | 247 kts | 266° |
| 2026-05-07 20:39 | 51.65860 | 0.19370 | 9312 ft | 245 kts | 266° |
| 2026-05-07 20:39 | 51.65779 | 0.16631 | 8956 ft | 244 kts | 266° |
| 2026-05-07 20:39 | 51.65694 | 0.13900 | 8616 ft | 243 kts | 266° |
| 2026-05-07 20:39 | 51.65597 | 0.11185 | 8266 ft | 242 kts | 264° |
| 2026-05-07 20:40 | 51.65393 | 0.08589 | 8101 ft | 239 kts | 261° |
| 2026-05-07 20:40 | 51.65152 | 0.05917 | 8076 ft | 243 kts | 261° |
| 2026-05-07 20:40 | 51.64909 | 0.03243 | 8074 ft | 242 kts | 261° |
| 2026-05-07 20:40 | 51.64664 | 0.00547 | 8071 ft | 242 kts | 261° |
| 2026-05-07 20:41 | 51.64420 | -0.02132 | 8073 ft | 241 kts | 261° |
| 2026-05-07 20:41 | 51.64179 | -0.04768 | 8074 ft | 242 kts | 261° |
| 2026-05-07 20:41 | 51.63931 | -0.07469 | 8074 ft | 241 kts | 261° |
| 2026-05-07 20:41 | 51.63688 | -0.10114 | 8053 ft | 240 kts | 261° |
| 2026-05-07 20:42 | 51.63443 | -0.12773 | 7793 ft | 238 kts | 261° |
| 2026-05-07 20:42 | 51.63197 | -0.15414 | 7390 ft | 239 kts | 261° |
| 2026-05-07 20:42 | 51.62948 | -0.18049 | 7133 ft | 237 kts | 261° |
| 2026-05-07 20:42 | 51.62780 | -0.19800 | 7090 ft | 240 kts | 261° |
| 2026-05-07 20:43 | 51.62438 | -0.23344 | 7079 ft | 240 kts | 261° |
| 2026-05-07 20:43 | 51.62184 | -0.25981 | 7072 ft | 240 kts | 261° |
| 2026-05-07 20:43 | 51.62013 | -0.27746 | 7072 ft | 240 kts | 261° |
| 2026-05-07 20:43 | 51.61670 | -0.31292 | 7075 ft | 239 kts | 261° |
| 2026-05-07 20:44 | 51.61501 | -0.33038 | 7073 ft | 240 kts | 261° |
| 2026-05-07 20:44 | 51.61243 | -0.35689 | 7077 ft | 239 kts | 261° |
| 2026-05-07 20:44 | 51.60986 | -0.38311 | 7073 ft | 239 kts | 261° |
| 2026-05-07 20:44 | 51.60726 | -0.40967 | 7076 ft | 239 kts | 261° |
| 2026-05-07 20:45 | 51.60467 | -0.43615 | 7078 ft | 239 kts | 261° |
| 2026-05-07 20:45 | 51.60208 | -0.46246 | 7078 ft | 239 kts | 261° |
| 2026-05-07 20:45 | 51.59947 | -0.48889 | 7074 ft | 238 kts | 261° |
| 2026-05-07 20:45 | 51.59687 | -0.51516 | 7031 ft | 237 kts | 261° |
| 2026-05-07 20:46 | 51.59430 | -0.54112 | 6755 ft | 236 kts | 261° |
| 2026-05-07 20:46 | 51.59170 | -0.56724 | 6363 ft | 237 kts | 261° |
| 2026-05-07 20:46 | 51.58909 | -0.59350 | 5934 ft | 238 kts | 261° |
| 2026-05-07 20:46 | 51.58653 | -0.61970 | 5524 ft | 238 kts | 261° |
| 2026-05-07 20:47 | 51.58401 | -0.64597 | 5135 ft | 238 kts | 261° |
| 2026-05-07 20:47 | 51.58152 | -0.67226 | 4756 ft | 237 kts | 261° |
| 2026-05-07 20:47 | 51.57906 | -0.69840 | 4396 ft | 236 kts | 261° |
| 2026-05-07 20:47 | 51.57664 | -0.72431 | 4080 ft | 232 kts | 261° |
| 2026-05-07 20:48 | 51.57425 | -0.75008 | 3996 ft | 236 kts | 261° |
| 2026-05-07 20:48 | 51.57147 | -0.77501 | 3971 ft | 233 kts | 250° |
| 2026-05-07 20:48 | 51.56243 | -0.79708 | 3976 ft | 232 kts | 217° |
| 2026-05-07 20:48 | 51.54819 | -0.80747 | 3976 ft | 229 kts | 186° |
| 2026-05-07 20:49 | 51.53205 | -0.80884 | 3974 ft | 229 kts | 180° |
| 2026-05-07 20:49 | 51.51616 | -0.80956 | 3976 ft | 229 kts | 180° |
| 2026-05-07 20:49 | 51.50051 | -0.80666 | 3974 ft | 223 kts | 157° |
| 2026-05-07 20:49 | 51.48767 | -0.79466 | 3986 ft | 206 kts | 136° |
| 2026-05-07 20:50 | 51.47836 | -0.77851 | 3983 ft | 189 kts | 125° |
| 2026-05-07 20:50 | 51.47140 | -0.76094 | 3996 ft | 188 kts | 121° |
| 2026-05-07 20:50 | 51.46743 | -0.74176 | 3880 ft | 186 kts | 84° |
| 2026-05-07 20:50 | 51.47051 | -0.72131 | 3601 ft | 188 kts | 73° |
| 2026-05-07 20:51 | 51.47419 | -0.70078 | 3179 ft | 196 kts | 78° |
| 2026-05-07 20:51 | 51.47616 | -0.67946 | 2788 ft | 187 kts | 86° |
| 2026-05-07 20:51 | 51.47677 | -0.65936 | 2392 ft | 174 kts | 90° |
| 2026-05-07 20:51 | 51.47691 | -0.64110 | 2094 ft | 154 kts | 91° |
| 2026-05-07 20:52 | 51.47699 | -0.62477 | 1864 ft | 140 kts | 91° |
| 2026-05-07 20:52 | 51.47705 | -0.60960 | 1681 ft | 136 kts | 92° |
| 2026-05-07 20:52 | 51.47709 | -0.59451 | 1491 ft | 135 kts | 92° |
| 2026-05-07 20:52 | 51.47715 | -0.57940 | 1294 ft | 134 kts | 92° |
| 2026-05-07 20:53 | 51.47720 | -0.56445 | 1114 ft | 134 kts | 91° |
| 2026-05-07 20:53 | 51.47726 | -0.54968 | 926 ft | 133 kts | 92° |
| 2026-05-07 20:53 | 51.47730 | -0.53504 | 741 ft | 131 kts | 91° |
| 2026-05-07 20:53 | 51.47736 | -0.52064 | 566 ft | 129 kts | 91° |
| 2026-05-07 20:54 | 51.47740 | -0.50638 | 388 ft | 129 kts | 91° |
| 2026-05-07 20:54 | 51.47741 | -0.49282 | 225 ft | 127 kts | 91° |
| 2026-05-07 20:54 | 51.47742 | -0.47862 | 123 ft | 126 kts | 91° |
| 2026-05-07 20:54 | 51.47734 | -0.46547 | 91 ft | 99 kts | 88° |
| 2026-05-07 20:55 | 51.47743 | -0.45944 | 85 ft | 10 kts | 84° |
| 2026-05-07 20:55 | 51.47750 | -0.45840 | 84 ft | 18 kts | 84° |
| 2026-05-07 20:55 | 51.47759 | -0.45617 | 88 ft | 21 kts | 90° |
| 2026-05-07 20:55 | 51.47683 | -0.45466 | 87 ft | 19 kts | 177° |
| 2026-05-07 20:56 | 51.47654 | -0.45464 | 86 ft | 0 kts | 177° |
| 2026-05-07 20:57 | 51.47633 | -0.45463 | 86 ft | 8 kts | 179° |
| 2026-05-07 20:57 | 51.47594 | -0.45532 | 89 ft | 10 kts | 262° |
| 2026-05-07 20:57 | 51.47594 | -0.45641 | 90 ft | 4 kts | 269° |
| 2026-05-07 20:58 | 51.47594 | -0.45706 | 90 ft | 8 kts | 269° |
| 2026-05-07 20:58 | 51.47593 | -0.45814 | 87 ft | 12 kts | 269° |
| 2026-05-07 20:58 | 51.47592 | -0.45962 | 86 ft | 15 kts | 269° |
| 2026-05-07 20:58 | 51.47590 | -0.46146 | 86 ft | 18 kts | 269° |
| 2026-05-07 20:59 | 51.47588 | -0.46348 | 87 ft | 19 kts | 269° |
| 2026-05-07 20:59 | 51.47588 | -0.46537 | 87 ft | 14 kts | 270° |
| 2026-05-07 20:59 | 51.47588 | -0.46716 | 87 ft | 18 kts | 270° |
| 2026-05-07 20:59 | 51.47582 | -0.46928 | 88 ft | 20 kts | 267° |
| 2026-05-07 21:00 | 51.47580 | -0.47129 | 86 ft | 14 kts | 269° |
| 2026-05-07 21:00 | 51.47579 | -0.47302 | 88 ft | 17 kts | 270° |
| 2026-05-07 21:00 | 51.47579 | -0.47508 | 90 ft | 20 kts | 270° |
| 2026-05-07 21:00 | 51.47579 | -0.47718 | 90 ft | 12 kts | 270° |
| 2026-05-07 21:01 | 51.47579 | -0.47871 | 90 ft | 15 kts | 270° |
| 2026-05-07 21:01 | 51.47578 | -0.48058 | 90 ft | 18 kts | 269° |
| 2026-05-07 21:01 | 51.47576 | -0.48261 | 86 ft | 17 kts | 269° |
| 2026-05-07 21:01 | 51.47575 | -0.48384 | 86 ft | 12 kts | 269° |
| 2026-05-07 21:02 | 51.47526 | -0.48474 | 88 ft | 10 kts | 186° |
| 2026-05-07 21:02 | 51.47445 | -0.48476 | 86 ft | 13 kts | 180° |
| 2026-05-07 21:02 | 51.47379 | -0.48481 | 87 ft | 5 kts | 198° |
| 2026-05-07 21:02 | 51.47361 | -0.48543 | 86 ft | 8 kts | 267° |
| 2026-05-07 21:03 | 51.47360 | -0.48579 | 87 ft | 1 kts | 267° |
| 2026-05-07 21:03 | 51.47360 | -0.48588 | 87 ft | 0 kts | 270° |